Time;durP1;ratioP1;P1;durP2;ratioP2;P2;SDS_P1;SDS_P2;PMS_P1;PMS_P2;Temp;Humidity;BMP_temperature;BMP_pressure;BME280_temperature;BME280_humidity;BME280_pressure;Samples;Min_cycle;Max_cycle;Signal;HPM_P1;HPM_P2
2022/12/01 00:05:46;;;;;;;10.23;3.10;;;;;;;-144.18;100.00;69644.63;31337735;28;20049;-71
2022/12/01 00:20:54;;;;;;;9.97;2.53;;;;;;;-144.18;100.00;69644.63;31324811;28;20053;-72
2022/12/01 00:35:58;;;;;;;6.07;2.63;;;;;;;-144.18;100.00;69644.63;31372344;28;20049;-72
2022/12/01 00:51:00;;;;;;;6.40;3.00;;;;;;;-144.18;100.00;69644.63;31362254;28;20060;-73
2022/12/01 01:06:07;;;;;;;9.17;2.90;;;;;;;-144.18;100.00;69644.63;31381162;28;20048;-73
2022/12/01 01:21:13;;;;;;;4.70;3.33;;;;;;;-144.18;100.00;69644.63;31347725;28;20045;-72
2022/12/01 01:36:16;;;;;;;7.43;3.47;;;;;;;-144.18;100.00;69644.63;31342046;28;20045;-74
2022/12/01 01:51:40;;;;;;;10.07;3.07;;;;;;;-144.18;100.00;69644.63;31334450;28;20106;-72
2022/12/01 02:06:42;;;;;;;10.77;3.17;;;;;;;-144.18;100.00;69644.63;31349835;28;20445;-73
2022/12/01 02:21:58;;;;;;;5.87;2.90;;;;;;;-144.18;100.00;69644.63;31355369;28;20056;-74
2022/12/01 02:37:37;;;;;;;3.57;2.87;;;;;;;-144.18;100.00;69644.63;31348261;28;20041;-73
2022/12/01 02:52:41;;;;;;;8.20;2.93;;;;;;;-144.18;100.00;69644.63;31349744;28;20490;-72
2022/12/01 03:08:00;;;;;;;9.97;3.80;;;;;;;-144.18;100.00;69644.63;31362641;28;20115;-72
2022/12/01 03:23:15;;;;;;;5.37;3.40;;;;;;;-144.18;100.00;69644.63;31369660;28;20056;-72
2022/12/01 03:38:22;;;;;;;7.90;3.70;;;;;;;-144.18;100.00;69644.63;31361800;28;20418;-74
2022/12/01 03:53:37;;;;;;;5.67;2.50;;;;;;;-144.18;100.00;69644.63;31343908;28;20501;-73
2022/12/01 04:08:39;;;;;;;8.47;2.60;;;;;;;-144.18;100.00;69644.63;31350841;28;20521;-73
2022/12/01 04:23:59;;;;;;;6.53;2.93;;;;;;;-144.18;100.00;69644.63;31364055;28;20046;-73
2022/12/01 04:39:02;;;;;;;3.70;2.37;;;;;;;-144.18;100.00;69644.63;31357353;28;20107;-73
2022/12/01 04:54:04;;;;;;;11.57;3.47;;;;;;;-144.18;100.00;69644.63;31347597;28;20049;-73
2022/12/01 05:09:07;;;;;;;9.87;3.20;;;;;;;-144.18;100.00;69644.63;31336100;28;20434;-73
2022/12/01 05:24:17;;;;;;;8.97;3.40;;;;;;;-144.18;100.00;69644.63;31328039;28;20132;-74
2022/12/01 05:39:19;;;;;;;12.03;2.90;;;;;;;-144.18;100.00;69644.63;31360853;28;20056;-73
2022/12/01 05:54:21;;;;;;;17.50;3.70;;;;;;;-144.18;100.00;69644.63;31337108;28;20041;-74
2022/12/01 06:09:23;;;;;;;21.87;4.50;;;;;;;-144.18;100.00;69644.63;31325099;28;20064;-73
2022/12/01 06:24:25;;;;;;;7.50;3.87;;;;;;;-144.18;100.00;69644.63;31329041;28;20049;-74
2022/12/01 06:39:27;;;;;;;14.63;4.00;;;;;;;-144.18;100.00;69644.63;31363934;28;20057;-73
2022/12/01 06:54:29;;;;;;;5.23;3.03;;;;;;;-144.18;100.00;69644.63;31369015;28;20053;-73
2022/12/01 07:09:31;;;;;;;16.10;3.80;;;;;;;-144.18;100.00;69644.63;31364283;28;20111;-73
2022/12/01 07:24:35;;;;;;;22.87;4.13;;;;;;;-144.18;100.00;69644.63;31376444;28;20057;-73
2022/12/01 07:39:37;;;;;;;12.63;3.60;;;;;;;-144.18;100.00;69644.63;31381884;28;20056;-73
2022/12/01 07:54:38;;;;;;;10.13;3.97;;;;;;;-144.18;100.00;69644.63;31350591;28;20053;-73
2022/12/01 08:09:40;;;;;;;4.07;2.77;;;;;;;-144.18;100.00;69644.63;31382937;28;20502;-74
2022/12/01 08:24:42;;;;;;;5.83;2.73;;;;;;;-144.18;100.00;69644.63;31363992;28;20053;-74
2022/12/01 08:39:44;;;;;;;5.27;2.30;;;;;;;-144.18;100.00;69644.63;31365653;28;20060;-75
2022/12/01 08:54:46;;;;;;;6.80;3.10;;;;;;;-144.18;100.00;69644.63;31360113;28;20049;-79
2022/12/01 09:09:49;;;;;;;5.27;2.20;;;;;;;-144.18;100.00;69644.63;31393032;28;20049;-86
2022/12/01 09:24:54;;;;;;;9.87;3.70;;;;;;;-144.18;100.00;69644.63;31380045;28;20041;-87
2022/12/01 09:39:56;;;;;;;15.80;4.20;;;;;;;-144.18;100.00;69644.63;31384712;28;20060;-82
2022/12/01 09:54:59;;;;;;;14.47;3.67;;;;;;;-144.18;100.00;69644.63;31331122;28;20067;-72
2022/12/01 10:10:12;;;;;;;8.27;4.83;;;;;;;-144.18;100.00;69644.63;31319846;28;20073;-73
2022/12/01 10:25:41;;;;;;;4.43;2.73;;;;;;;-144.18;100.00;69644.63;31345162;28;20049;-79
2022/12/01 10:41:00;;;;;;;11.17;2.80;;;;;;;-144.18;100.00;69644.63;31422605;28;20136;-83
2022/12/01 10:56:09;;;;;;;6.47;2.63;;;;;;;-144.18;100.00;69644.63;31389071;28;20064;-87
2022/12/01 11:11:31;;;;;;;5.10;3.37;;;;;;;-144.18;100.00;69644.63;31384291;28;20045;-81
2022/12/01 11:26:33;;;;;;;8.80;2.07;;;;;;;-144.18;100.00;69644.63;31325546;28;20049;-74
2022/12/01 11:41:38;;;;;;;11.53;3.37;;;;;;;-144.18;100.00;69644.63;31314977;28;20058;-72
2022/12/01 11:56:42;;;;;;;8.63;3.37;;;;;;;-144.18;100.00;69644.63;31214119;28;20050;-74
2022/12/01 12:11:57;;;;;;;5.33;2.43;;;;;;;-144.18;100.00;69644.63;31246537;28;20403;-82
2022/12/01 12:27:05;;;;;;;6.07;2.60;;;;;;;-144.18;100.00;69644.63;31260845;28;20079;-73
2022/12/01 12:42:33;;;;;;;5.03;3.00;;;;;;;-144.18;100.00;69644.63;31292524;28;20049;-74
2022/12/01 12:57:39;;;;;;;15.47;3.47;;;;;;;-144.18;100.00;69644.63;31350637;28;20063;-74
2022/12/01 13:12:47;;;;;;;8.77;4.53;;;;;;;-144.18;100.00;69644.63;31361338;28;20053;-74
2022/12/01 13:27:51;;;;;;;8.83;3.80;;;;;;;-144.18;100.00;69644.63;31383495;28;20067;-73
2022/12/01 13:43:04;;;;;;;26.23;12.57;;;;;;;-144.18;100.00;69644.63;31409201;28;20132;-82
2022/12/01 13:58:12;;;;;;;18.93;5.67;;;;;;;-144.18;100.00;69644.63;31497310;22;20083;-83
2022/12/01 14:13:20;;;;;;;8.67;4.10;;;;;;;-144.18;100.00;69644.63;31557538;28;20402;-85
2022/12/01 14:28:55;;;;;;;14.00;5.40;;;;;;;-144.18;100.00;69644.63;31523024;28;20044;-85
2022/12/01 14:44:05;;;;;;;20.83;4.70;;;;;;;-144.18;100.00;69644.63;31580887;28;20040;-86
2022/12/01 14:59:20;;;;;;;25.43;7.50;;;;;;;-144.18;100.00;69644.63;31559883;28;20036;-89
2022/12/01 15:31:17;;;;;;;20.60;5.13;;;;;;;-144.18;100.00;69644.63;31593052;28;20048;-84
2022/12/01 15:46:30;;;;;;;23.27;6.30;;;;;;;-144.18;100.00;69644.63;31552581;28;20048;-84
2022/12/01 16:01:34;;;;;;;23.63;6.30;;;;;;;-144.18;100.00;69644.63;31381253;22;20058;-81
2022/12/01 16:16:45;;;;;;;26.17;7.43;;;;;;;-144.18;100.00;69644.63;31290790;28;20506;-74
2022/12/01 16:31:49;;;;;;;21.30;6.33;;;;;;;-144.18;100.00;69644.63;31274787;28;20266;-84
2022/12/01 16:48:06;;;;;;;15.63;4.67;;;;;;;-144.18;100.00;69644.63;31286902;28;20135;-79
2022/12/01 17:20:16;;;;;;;12.03;4.17;;;;;;;-144.18;100.00;69644.63;31430864;23;20410;-85
2022/12/01 17:35:18;;;;;;;6.47;3.30;;;;;;;-144.18;100.00;69644.63;31386686;28;20045;-82
2022/12/01 17:50:22;;;;;;;9.63;4.07;;;;;;;-144.18;100.00;69644.63;31968496;22;20037;-85
2022/12/01 18:05:29;;;;;;;12.17;4.03;;;;;;;-144.18;100.00;69644.63;31511402;28;20416;-83
2022/12/01 18:20:33;;;;;;;9.57;3.43;;;;;;;-144.18;100.00;69644.63;31502446;22;20061;-73
2022/12/01 18:35:42;;;;;;;19.90;4.87;;;;;;;-144.18;100.00;69644.63;31909980;22;20072;-73
2022/12/01 18:50:51;;;;;;;12.40;4.33;;;;;;;-144.18;100.00;69644.63;31434316;28;20036;-83
2022/12/01 19:06:04;;;;;;;9.73;4.40;;;;;;;-144.18;100.00;69644.63;31475917;28;20049;-74
2022/12/01 19:21:10;;;;;;;12.03;3.53;;;;;;;-144.18;100.00;69644.63;31429542;28;20074;-74
2022/12/01 19:36:14;;;;;;;9.50;3.43;;;;;;;-144.18;100.00;69644.63;31437473;28;20086;-73
2022/12/01 19:51:25;;;;;;;14.30;3.57;;;;;;;-144.18;100.00;69644.63;31407002;28;20127;-73
2022/12/01 20:06:29;;;;;;;16.93;4.70;;;;;;;-144.18;100.00;69644.63;31414176;28;20076;-73
2022/12/01 20:21:34;;;;;;;10.73;3.97;;;;;;;-144.18;100.00;69644.63;31439711;28;20121;-73
2022/12/01 20:36:36;;;;;;;22.50;5.23;;;;;;;-144.18;100.00;69644.63;31440472;28;20490;-71
2022/12/01 20:51:38;;;;;;;15.30;4.80;;;;;;;-144.18;100.00;69644.63;31427656;28;20117;-72
2022/12/01 21:06:41;;;;;;;14.97;4.30;;;;;;;-144.18;100.00;69644.63;31411397;28;20142;-71
2022/12/01 21:21:43;;;;;;;16.07;4.67;;;;;;;-144.18;100.00;69644.63;31401815;28;20055;-73
2022/12/01 21:36:47;;;;;;;14.07;3.80;;;;;;;-144.18;100.00;69644.63;31427134;28;20433;-73
2022/12/01 21:51:50;;;;;;;21.00;3.40;;;;;;;-144.18;100.00;69644.63;31418952;28;20064;-74
2022/12/01 22:06:54;;;;;;;12.83;3.60;;;;;;;-144.18;100.00;69644.63;31410245;28;20417;-73
2022/12/01 22:22:09;;;;;;;12.93;3.87;;;;;;;-144.18;100.00;69644.63;31431411;28;20498;-72
2022/12/01 22:37:42;;;;;;;10.07;3.77;;;;;;;-144.18;100.00;69644.63;31446131;28;20083;-73
2022/12/01 22:52:44;;;;;;;8.27;3.50;;;;;;;-144.18;100.00;69644.63;31461050;28;20045;-72
2022/12/01 23:07:46;;;;;;;9.93;3.57;;;;;;;-144.18;100.00;69644.63;31459107;28;20059;-73
2022/12/01 23:22:51;;;;;;;5.17;2.80;;;;;;;-144.18;100.00;69644.63;31439764;28;20048;-74
2022/12/01 23:37:53;;;;;;;6.20;2.00;;;;;;;-144.18;100.00;69644.63;31451487;28;20087;-73
2022/12/01 23:52:55;;;;;;;5.10;2.63;;;;;;;-144.18;100.00;69644.63;31439296;28;20080;-73
